createdAt,value
2022-08-22T00:02:14.344Z,9.60
2022-08-22T00:04:52.771Z,10.20
2022-08-22T00:07:38.822Z,9.45
2022-08-22T00:10:25.100Z,14.07
2022-08-22T00:13:14.121Z,9.70
2022-08-22T00:15:45.079Z,10.07
2022-08-22T00:18:18.823Z,9.40
2022-08-22T00:20:52.028Z,9.65
2022-08-22T00:23:23.787Z,9.48
2022-08-22T00:25:56.868Z,9.80
2022-08-22T00:28:28.564Z,10.25
2022-08-22T00:30:56.091Z,9.88
2022-08-22T00:33:33.738Z,10.40
2022-08-22T00:36:21.163Z,9.95
2022-08-22T00:38:53.622Z,9.43
2022-08-22T00:41:30.103Z,9.00
2022-08-22T00:44:03.025Z,10.73
2022-08-22T00:46:39.445Z,11.02
2022-08-22T00:49:06.545Z,10.82
2022-08-22T00:51:39.706Z,11.27
2022-08-22T00:54:17.593Z,11.23
2022-08-22T00:57:03.911Z,11.38
2022-08-22T00:59:36.890Z,10.75
2022-08-22T01:02:11.027Z,10.98
2022-08-22T01:04:48.338Z,9.95
2022-08-22T01:07:38.008Z,11.10
2022-08-22T01:10:24.444Z,12.05
2022-08-22T01:13:04.431Z,11.18
2022-08-22T01:15:34.118Z,12.05
2022-08-22T01:18:04.079Z,12.20
2022-08-22T01:20:40.260Z,11.85
2022-08-22T01:23:26.176Z,12.45
2022-08-22T01:26:08.786Z,11.65
2022-08-22T01:29:13.227Z,11.60
2022-08-22T01:31:41.343Z,11.57
2022-08-22T01:34:12.839Z,11.65
2022-08-22T01:36:46.262Z,12.32
2022-08-22T01:39:16.226Z,12.40
2022-08-22T01:42:02.101Z,12.57
2022-08-22T01:44:48.107Z,12.32
2022-08-22T01:47:27.143Z,11.27
2022-08-22T01:49:58.589Z,12.00
2022-08-22T01:52:42.493Z,11.82
2022-08-22T01:55:20.493Z,11.70
2022-08-22T01:57:52.929Z,12.02
2022-08-22T02:00:20.871Z,12.50
2022-08-22T02:03:21.780Z,13.90
2022-08-22T02:06:00.210Z,12.55
2022-08-22T02:08:33.517Z,13.13
2022-08-22T02:11:03.736Z,12.85
2022-08-22T02:13:49.332Z,14.53
2022-08-22T02:16:26.184Z,14.25
2022-08-22T02:19:04.486Z,12.07
2022-08-22T02:21:50.457Z,11.95
2022-08-22T02:24:36.494Z,11.93
2022-08-22T02:27:09.686Z,14.15
2022-08-22T02:29:44.461Z,13.73
2022-08-22T02:32:25.476Z,14.45
2022-08-22T02:35:01.525Z,13.45
2022-08-22T02:37:34.491Z,13.43
2022-08-22T02:40:08.555Z,13.18
2022-08-22T02:42:43.156Z,11.57
2022-08-22T02:45:10.326Z,12.50
2022-08-22T02:47:42.081Z,11.40
2022-08-22T02:50:12.724Z,12.55
2022-08-22T02:52:46.176Z,11.73
2022-08-22T02:55:22.153Z,11.55
2022-08-22T02:57:58.381Z,12.00
2022-08-22T03:00:31.414Z,11.18
2022-08-22T03:03:00.238Z,10.98
2022-08-22T03:05:29.905Z,15.32
2022-08-22T03:08:03.587Z,12.65
2022-08-22T03:10:36.492Z,14.13
2022-08-22T03:13:08.358Z,14.80
2022-08-22T03:15:39.425Z,15.68
2022-08-22T03:18:35.141Z,14.43
2022-08-22T03:21:14.699Z,14.27
2022-08-22T03:23:46.545Z,14.32
2022-08-22T03:26:16.427Z,13.85
2022-08-22T03:28:59.387Z,13.00
2022-08-22T03:31:28.519Z,13.02
2022-08-22T03:34:14.371Z,11.93
2022-08-22T03:36:45.794Z,12.15
2022-08-22T03:39:19.015Z,18.40
2022-08-22T03:41:58.382Z,12.10
2022-08-22T03:44:51.577Z,12.50
2022-08-22T03:47:38.125Z,12.82
2022-08-22T03:50:27.450Z,12.27
2022-08-22T03:53:15.261Z,13.60
2022-08-22T03:55:46.348Z,13.75
2022-08-22T03:58:34.502Z,13.63
2022-08-22T04:01:40.162Z,13.38
2022-08-22T04:04:26.190Z,13.38
2022-08-22T04:06:58.282Z,14.32
2022-08-22T04:09:43.542Z,14.02
2022-08-22T04:12:29.534Z,13.90
2022-08-22T04:15:19.826Z,13.65
2022-08-22T04:18:08.951Z,14.13
2022-08-22T04:20:41.763Z,13.93
2022-08-22T04:23:27.336Z,14.45
2022-08-22T04:25:59.384Z,15.63
2022-08-22T04:28:30.598Z,18.15
2022-08-22T04:33:32.534Z,20.58
2022-08-22T04:36:02.775Z,20.70
2022-08-22T04:38:34.641Z,20.47
2022-08-22T04:41:09.729Z,19.40
2022-08-22T04:43:40.329Z,19.98
2022-08-22T04:46:11.651Z,24.75
2022-08-22T04:48:53.331Z,23.30
2022-08-22T04:51:21.980Z,23.75
2022-08-22T04:53:49.628Z,20.77
2022-08-22T04:56:35.675Z,21.38
2022-08-22T04:59:05.193Z,21.40
2022-08-22T05:01:51.292Z,21.83
2022-08-22T05:04:23.700Z,21.33
2022-08-22T05:06:53.705Z,23.13
2022-08-22T05:09:25.898Z,21.15
2022-08-22T05:11:54.582Z,23.15
2022-08-22T05:14:28.259Z,20.38
2022-08-22T05:16:57.486Z,21.35
2022-08-22T05:19:32.121Z,22.10
2022-08-22T05:21:59.827Z,21.30
2022-08-22T05:24:32.587Z,22.30
2022-08-22T05:27:04.492Z,22.88
2022-08-22T05:29:33.048Z,24.60
2022-08-22T05:32:05.364Z,25.48
2022-08-22T05:34:38.959Z,23.70
2022-08-22T05:37:08.186Z,22.80
2022-08-22T05:39:56.037Z,22.88
2022-08-22T05:42:27.579Z,22.92
2022-08-22T05:44:55.442Z,22.20
2022-08-22T05:47:24.449Z,27.67
2022-08-22T05:50:07.583Z,26.33
2022-08-22T05:52:34.776Z,21.98
2022-08-22T05:55:05.876Z,23.27
2022-08-22T06:00:04.029Z,22.50
2022-08-22T06:05:00.869Z,20.75
2022-08-22T06:07:36.010Z,19.75
2022-08-22T06:10:07.529Z,21.10
2022-08-22T06:12:43.397Z,21.38
2022-08-22T06:15:12.651Z,19.92
2022-08-22T06:17:50.627Z,20.63
2022-08-22T06:20:26.145Z,17.48
2022-08-22T06:22:58.824Z,15.77
2022-08-22T06:25:28.332Z,15.27
2022-08-22T06:27:56.372Z,16.13
2022-08-22T06:30:24.723Z,14.18
2022-08-22T06:33:00.026Z,14.30
2022-08-22T06:35:53.033Z,15.38
2022-08-22T06:38:21.471Z,15.68
2022-08-22T06:40:50.681Z,14.60
2022-08-22T06:43:18.335Z,14.30
2022-08-22T06:45:45.778Z,12.82
2022-08-22T06:48:16.262Z,12.77
2022-08-22T06:50:44.677Z,12.15
2022-08-22T06:53:19.310Z,11.93
2022-08-22T06:55:51.962Z,11.25
2022-08-22T06:58:21.714Z,11.68
2022-08-22T07:01:05.696Z,9.23
2022-08-22T07:06:07.104Z,9.20
2022-08-22T07:08:39.001Z,8.88
2022-08-22T07:11:12.568Z,8.85
2022-08-22T07:13:43.744Z,9.73
2022-08-22T07:16:11.145Z,8.82
2022-08-22T07:18:46.966Z,8.23
2022-08-22T07:21:23.876Z,8.25
2022-08-22T07:23:51.476Z,11.02
2022-08-22T07:26:31.629Z,9.77
2022-08-22T07:29:09.059Z,9.73
2022-08-22T07:31:56.300Z,8.25
2022-08-22T07:34:38.073Z,8.35
2022-08-22T07:37:16.054Z,8.88
2022-08-22T07:39:58.081Z,8.20
2022-08-22T07:42:30.350Z,7.50
2022-08-22T07:45:09.343Z,7.80
2022-08-22T07:47:55.470Z,8.40
2022-08-22T07:50:25.127Z,7.28
2022-08-22T07:52:53.365Z,7.90
2022-08-22T07:55:23.287Z,7.93
2022-08-22T07:58:13.655Z,7.18
2022-08-22T08:00:45.728Z,8.02
2022-08-22T08:03:13.496Z,7.90
2022-08-22T08:05:43.533Z,7.03
2022-08-22T08:08:27.502Z,6.68
2022-08-22T08:10:56.733Z,6.60
2022-08-22T08:13:27.599Z,6.57
2022-08-22T08:15:54.987Z,6.70
2022-08-22T08:18:25.847Z,6.20
2022-08-22T08:20:56.945Z,6.65
2022-08-22T08:23:25.254Z,6.35
2022-08-22T08:25:55.115Z,6.45
2022-08-22T08:28:35.296Z,6.40
2022-08-22T08:31:10.887Z,6.35
2022-08-22T08:33:40.553Z,7.40
2022-08-22T08:36:30.390Z,6.85
2022-08-22T08:39:12.409Z,6.20
2022-08-22T08:41:58.601Z,6.38
2022-08-22T08:44:43.408Z,6.22
2022-08-22T08:47:22.900Z,12.35
2022-08-22T08:49:57.715Z,6.70
2022-08-22T08:55:46.095Z,6.88
2022-08-22T08:58:17.651Z,7.50
2022-08-22T09:00:49.062Z,5.75
2022-08-22T09:03:30.572Z,5.68
2022-08-22T09:06:04.974Z,6.05
2022-08-22T09:08:55.789Z,6.32
2022-08-22T09:11:42.620Z,7.72
2022-08-22T09:14:13.025Z,7.82
2022-08-22T09:17:00.264Z,7.18
2022-08-22T09:19:33.510Z,6.57
2022-08-22T09:22:14.568Z,7.50
2022-08-22T09:25:00.645Z,7.75
2022-08-22T09:27:36.911Z,7.78
2022-08-22T09:30:11.653Z,9.27
2022-08-22T09:32:45.210Z,7.80
2022-08-22T09:35:19.395Z,8.68
2022-08-22T09:38:08.290Z,8.27
2022-08-22T09:40:16.098Z,6.45
2022-08-22T09:40:42.576Z,8.10
2022-08-22T09:43:13.692Z,9.40
2022-08-22T09:45:52.274Z,8.95
2022-08-22T09:48:26.665Z,9.02
2022-08-22T09:51:13.577Z,9.20
2022-08-22T09:53:53.916Z,9.18
2022-08-22T09:56:30.941Z,8.60
2022-08-22T09:58:58.053Z,8.82
2022-08-22T10:01:32.805Z,11.90
2022-08-22T10:04:19.316Z,10.10
2022-08-22T10:06:55.897Z,8.57
2022-08-22T10:09:31.289Z,7.97
2022-08-22T10:12:04.712Z,10.63
2022-08-22T10:14:40.572Z,10.55
2022-08-22T10:17:26.308Z,9.63
2022-08-22T10:20:06.287Z,8.18
2022-08-22T10:22:39.481Z,8.13
2022-08-22T10:25:25.389Z,9.88
2022-08-22T10:28:01.561Z,9.70
2022-08-22T10:30:39.372Z,10.20
2022-08-22T10:33:17.386Z,8.88
2022-08-22T10:35:44.835Z,9.50
2022-08-22T10:38:14.832Z,8.30
2022-08-22T10:41:17.535Z,11.27
2022-08-22T10:43:56.375Z,9.98
2022-08-22T10:46:28.962Z,9.88
2022-08-22T10:49:07.824Z,14.38
2022-08-22T10:51:50.827Z,8.90
2022-08-22T10:54:19.774Z,9.30
2022-08-22T10:56:51.730Z,10.00
2022-08-22T10:59:39.274Z,10.52
2022-08-22T11:02:06.522Z,10.40
2022-08-22T11:04:35.345Z,9.57
2022-08-22T11:07:22.476Z,9.88
2022-08-22T11:09:54.535Z,10.00
2022-08-22T11:12:34.899Z,15.35
2022-08-22T11:15:09.107Z,9.95
2022-08-22T11:17:57.437Z,10.98
2022-08-22T11:20:33.767Z,12.45
2022-08-22T11:23:26.497Z,10.40
2022-08-22T11:25:58.142Z,10.27
2022-08-22T11:28:50.767Z,11.40
2022-08-22T11:31:31.752Z,11.40
2022-08-22T11:34:22.381Z,31.38
2022-08-22T11:36:54.921Z,16.33
2022-08-22T11:39:45.463Z,11.15
2022-08-22T11:42:14.399Z,16.23
2022-08-22T11:44:43.012Z,10.90
2022-08-22T11:47:20.158Z,15.02
2022-08-22T11:49:53.837Z,9.82
2022-08-22T11:52:39.135Z,10.40
2022-08-22T11:55:18.506Z,15.63
2022-08-22T11:57:48.269Z,9.98
2022-08-22T12:00:20.861Z,10.80
2022-08-22T12:02:53.958Z,11.15
2022-08-22T12:05:26.315Z,11.38
2022-08-22T12:07:57.398Z,13.05
2022-08-22T12:10:30.867Z,12.43
2022-08-22T12:12:58.430Z,13.70
2022-08-22T12:15:34.285Z,12.13
2022-08-22T12:18:21.523Z,12.13
2022-08-22T12:20:57.755Z,11.32
2022-08-22T12:23:50.425Z,11.10
2022-08-22T12:26:36.206Z,11.13
2022-08-22T12:29:03.730Z,9.35
2022-08-22T12:31:33.669Z,14.02
2022-08-22T12:34:18.374Z,11.13
2022-08-22T12:36:50.977Z,9.93
2022-08-22T12:39:31.140Z,11.90
2022-08-22T12:42:17.422Z,10.18
2022-08-22T12:44:47.646Z,11.00
2022-08-22T12:47:31.948Z,8.88
2022-08-22T12:49:59.353Z,11.40
2022-08-22T12:52:35.803Z,8.48
2022-08-22T12:55:15.298Z,13.75
2022-08-22T12:57:50.429Z,7.97
2022-08-22T13:00:27.132Z,10.80
2022-08-22T13:02:58.304Z,9.93
2022-08-22T13:05:27.445Z,11.18
2022-08-22T13:08:04.582Z,11.18
2022-08-22T13:10:41.578Z,8.27
2022-08-22T13:13:11.909Z,12.52
2022-08-22T13:15:53.567Z,11.98
2022-08-22T13:18:30.420Z,11.32
2022-08-22T13:20:59.396Z,9.18
2022-08-22T13:23:29.003Z,10.75
2022-08-22T13:26:07.779Z,8.23
2022-08-22T13:28:42.201Z,15.18
2022-08-22T13:31:10.477Z,11.00
2022-08-22T13:33:47.037Z,12.90
2022-08-22T13:36:16.139Z,14.68
2022-08-22T13:39:04.239Z,8.85
2022-08-22T13:41:39.173Z,10.13
2022-08-22T13:44:18.429Z,8.75
2022-08-22T13:47:12.876Z,9.85
2022-08-22T13:49:41.378Z,9.43
2022-08-22T13:52:14.658Z,15.18
2022-08-22T13:55:00.814Z,15.55
2022-08-22T13:57:28.342Z,9.20
2022-08-22T14:00:06.298Z,14.68
2022-08-22T14:02:52.793Z,11.98
2022-08-22T14:05:25.977Z,9.55
2022-08-22T14:08:12.872Z,10.77
2022-08-22T14:10:44.084Z,8.40
2022-08-22T14:13:12.800Z,23.63
2022-08-22T14:15:45.041Z,8.63
2022-08-22T14:18:13.003Z,8.20
2022-08-22T14:20:41.194Z,13.02
2022-08-22T14:23:11.523Z,17.58
2022-08-22T14:25:39.947Z,12.10
2022-08-22T14:28:09.458Z,9.80
2022-08-22T14:30:40.266Z,9.03
2022-08-22T14:35:56.068Z,8.07
2022-08-22T14:38:30.144Z,10.77
2022-08-22T14:41:10.605Z,10.25
2022-08-22T14:43:48.127Z,7.30
2022-08-22T14:46:20.296Z,8.00
2022-08-22T14:51:24.404Z,11.25
2022-08-22T14:53:51.599Z,10.73
2022-08-22T14:56:21.980Z,8.38
2022-08-22T15:01:18.749Z,12.68
2022-08-22T15:04:00.084Z,8.70
2022-08-22T15:06:38.368Z,9.68
2022-08-22T15:09:31.631Z,13.68
2022-08-22T15:11:59.565Z,9.98
2022-08-22T15:14:37.808Z,10.10
2022-08-22T15:17:07.252Z,14.10
2022-08-22T15:19:35.246Z,17.83
2022-08-22T15:22:21.091Z,14.48
2022-08-22T15:25:03.234Z,11.63
2022-08-22T15:27:32.001Z,10.13
2022-08-22T15:30:00.680Z,14.60
2022-08-22T15:32:31.329Z,12.90
2022-08-22T15:35:10.639Z,13.85
2022-08-22T15:38:16.478Z,11.85
2022-08-22T15:40:45.675Z,15.85
2022-08-22T15:43:28.912Z,11.07
2022-08-22T15:46:27.949Z,13.88
2022-08-22T15:49:00.139Z,16.25
2022-08-22T15:51:46.190Z,11.90
2022-08-22T15:54:24.361Z,16.55
2022-08-22T15:56:52.799Z,12.45
2022-08-22T15:59:25.554Z,13.82
2022-08-22T16:01:55.132Z,14.65
2022-08-22T16:04:33.986Z,11.07
2022-08-22T16:07:01.746Z,11.07
2022-08-22T16:09:37.599Z,9.95
2022-08-22T16:12:06.626Z,12.52
2022-08-22T16:14:33.746Z,13.07
2022-08-22T16:17:03.603Z,11.32
2022-08-22T16:19:33.010Z,13.77
2022-08-22T16:22:00.197Z,12.80
2022-08-22T16:24:27.350Z,12.18
2022-08-22T16:26:54.683Z,11.18
2022-08-22T16:29:21.802Z,11.65
2022-08-22T16:31:48.948Z,10.93
2022-08-22T16:34:18.903Z,14.82
2022-08-22T16:36:46.052Z,12.03
2022-08-22T16:39:22.485Z,12.23
2022-08-22T16:41:50.973Z,11.70
2022-08-22T16:44:30.095Z,15.27
2022-08-22T16:47:23.574Z,12.73
2022-08-22T16:49:50.734Z,12.70
2022-08-22T16:52:26.832Z,11.65
2022-08-22T16:54:53.980Z,14.73
2022-08-22T16:57:21.108Z,13.60
2022-08-22T16:59:54.744Z,12.23
2022-08-22T17:02:21.959Z,13.40
2022-08-22T17:05:02.864Z,14.45
2022-08-22T17:10:04.432Z,14.85
2022-08-22T17:12:39.924Z,10.93
2022-08-22T17:15:33.229Z,13.27
2022-08-22T17:18:10.761Z,13.30
2022-08-22T17:21:11.747Z,12.30
2022-08-22T17:23:46.019Z,11.38
2022-08-22T17:26:41.190Z,13.13
2022-08-22T17:29:23.498Z,14.55
2022-08-22T17:31:53.351Z,13.90
2022-08-22T17:34:20.455Z,14.57
2022-08-22T17:37:06.475Z,12.80
2022-08-22T17:39:55.631Z,11.93
2022-08-22T17:42:41.482Z,12.27
2022-08-22T17:45:23.410Z,12.35
2022-08-22T17:47:55.717Z,15.23
2022-08-22T17:50:35.170Z,12.90
2022-08-22T17:53:06.409Z,13.15
2022-08-22T17:55:37.653Z,15.60
2022-08-22T17:58:12.229Z,13.88
2022-08-22T18:01:04.865Z,15.32
2022-08-22T18:03:34.141Z,12.73
2022-08-22T18:06:18.943Z,13.88
2022-08-22T18:11:40.839Z,16.10
2022-08-22T18:14:12.932Z,16.02
2022-08-22T18:16:44.957Z,14.43
2022-08-22T18:19:18.461Z,13.82
2022-08-22T18:22:21.435Z,15.57
2022-08-22T18:25:02.600Z,14.50
2022-08-22T18:27:34.611Z,16.48
2022-08-22T18:30:08.715Z,14.40
2022-08-22T18:32:41.267Z,14.85
2022-08-22T18:35:23.006Z,13.48
2022-08-22T18:37:51.055Z,14.55
2022-08-22T18:40:31.345Z,12.10
2022-08-22T18:43:04.356Z,11.05
2022-08-22T18:45:46.829Z,14.40
2022-08-22T18:48:27.136Z,10.77
2022-08-22T18:51:13.358Z,13.20
2022-08-22T18:54:00.848Z,13.15
2022-08-22T18:56:47.916Z,11.32
2022-08-22T18:59:34.052Z,12.02
2022-08-22T19:02:20.813Z,15.13
2022-08-22T19:04:48.156Z,13.32
2022-08-22T19:07:15.469Z,15.90
2022-08-22T19:09:42.710Z,13.38
2022-08-22T19:12:34.303Z,14.38
2022-08-22T19:15:21.674Z,12.07
2022-08-22T19:17:59.101Z,11.18
2022-08-22T19:20:47.404Z,12.38
2022-08-22T19:23:32.963Z,15.38
2022-08-22T19:26:38.689Z,13.50
2022-08-22T19:29:26.145Z,12.52
2022-08-22T19:31:55.178Z,13.05
2022-08-22T19:34:22.637Z,12.45
2022-08-22T19:37:11.498Z,12.05
2022-08-22T19:40:07.904Z,17.30
2022-08-22T19:42:36.851Z,13.70
2022-08-22T19:45:04.389Z,12.20
2022-08-22T19:47:35.033Z,13.25
2022-08-22T19:50:18.191Z,13.57
2022-08-22T19:52:50.120Z,12.63
2022-08-22T19:55:17.557Z,17.77
2022-08-22T19:57:57.189Z,11.90
2022-08-22T20:00:43.189Z,16.52
2022-08-22T20:03:18.783Z,15.13
2022-08-22T20:05:56.593Z,16.00
2022-08-22T20:08:31.239Z,14.43
2022-08-22T20:11:04.626Z,18.40
2022-08-22T20:13:33.666Z,17.15
2022-08-22T20:16:00.784Z,12.52
2022-08-22T20:18:48.103Z,12.30
2022-08-22T20:21:39.097Z,17.17
2022-08-22T20:24:11.218Z,16.08
2022-08-22T20:26:52.094Z,14.75
2022-08-22T20:29:32.081Z,16.38
2022-08-22T20:31:59.433Z,14.60
2022-08-22T20:34:28.687Z,15.52
2022-08-22T20:37:16.065Z,16.20
2022-08-22T20:40:04.498Z,18.63
2022-08-22T20:42:32.653Z,15.85
2022-08-22T20:45:01.243Z,13.63
2022-08-22T20:47:36.232Z,17.40
2022-08-22T20:50:10.239Z,13.48
2022-08-22T20:52:41.499Z,17.75
2022-08-22T20:55:11.660Z,13.70
2022-08-22T20:57:55.584Z,13.17
2022-08-22T21:00:24.509Z,14.25
2022-08-22T21:02:51.691Z,16.08
2022-08-22T21:05:22.362Z,21.30
2022-08-22T21:08:02.554Z,19.55
2022-08-22T21:10:50.315Z,16.97
2022-08-22T21:13:22.550Z,17.05
2022-08-22T21:15:51.529Z,16.50
2022-08-22T21:18:27.113Z,14.32
2022-08-22T21:20:54.445Z,18.40
2022-08-22T21:23:21.819Z,15.85
2022-08-22T21:25:54.395Z,18.75
2022-08-22T21:28:46.960Z,18.88
2022-08-22T21:31:16.341Z,20.00
2022-08-22T21:33:45.364Z,14.60
2022-08-22T21:36:13.701Z,20.25
2022-08-22T21:38:41.579Z,16.25
2022-08-22T21:41:08.724Z,23.90
2022-08-22T21:43:37.935Z,15.43
2022-08-22T21:46:05.868Z,20.50
2022-08-22T21:48:38.061Z,18.17
2022-08-22T21:51:21.507Z,20.75
2022-08-22T21:53:48.859Z,21.25
2022-08-22T21:56:30.847Z,21.30
2022-08-22T21:59:16.513Z,20.15
2022-08-22T22:01:43.688Z,20.63
2022-08-22T22:04:13.287Z,18.85
2022-08-22T22:06:40.442Z,21.98
2022-08-22T22:09:10.896Z,18.60
2022-08-22T22:11:40.748Z,18.17
2022-08-22T22:14:07.935Z,16.33
2022-08-22T22:16:35.168Z,20.30
2022-08-22T22:19:02.401Z,16.67
2022-08-22T22:21:29.540Z,19.92
2022-08-22T22:23:58.445Z,18.42
2022-08-22T22:26:26.778Z,18.08
2022-08-22T22:28:53.965Z,27.38
2022-08-22T22:31:21.114Z,20.95
2022-08-22T22:33:48.316Z,15.70
2022-08-22T22:36:24.191Z,20.77
2022-08-22T22:38:52.420Z,17.80
2022-08-22T22:41:23.299Z,19.23
2022-08-22T22:43:50.554Z,18.60
2022-08-22T22:46:17.723Z,23.77
2022-08-22T22:48:45.002Z,15.77
2022-08-22T22:51:12.795Z,18.05
2022-08-22T22:53:43.107Z,18.55
2022-08-22T22:58:38.517Z,18.77
2022-08-22T23:01:19.749Z,19.17
2022-08-22T23:03:47.341Z,18.45
2022-08-22T23:06:19.142Z,23.52
2022-08-22T23:08:46.964Z,16.60
2022-08-22T23:11:15.517Z,21.00
2022-08-22T23:13:42.945Z,18.65
2022-08-22T23:16:11.989Z,23.33
2022-08-22T23:18:39.180Z,25.48
2022-08-22T23:21:10.317Z,18.60
2022-08-22T23:26:04.597Z,17.77
2022-08-22T23:28:31.732Z,21.98
2022-08-22T23:31:09.180Z,20.38
2022-08-22T23:33:36.379Z,18.52
2022-08-22T23:36:09.869Z,19.35
2022-08-22T23:38:37.043Z,18.45
2022-08-22T23:41:09.259Z,17.08
2022-08-22T23:43:37.110Z,22.80
2022-08-22T23:46:04.392Z,14.32
2022-08-22T23:48:31.566Z,15.48
2022-08-22T23:50:58.816Z,14.93
2022-08-22T23:53:26.118Z,15.27
2022-08-22T23:55:53.312Z,17.25
2022-08-22T23:58:21.103Z,15.70
